Katharina — V2DQ5 — position and weather

sailwx.info

Track history (hours):
 
Tides and Currents Weather Stations Pressure Air Temp Water Temp Dewpoint Dewpoint Depression Visibility Wind Speed Wind Dir Waves Ship Positions

Katharina

Last reported at 2017-Mar-29 23:30 UTC. Time now 2017-Mar-30 12:39 UTC.
Position N 53°34' E 004°47'.

Length 146 m; draft 5.9 m.

Type: Ship (hazmat cat A). MMSI: 305305000.

Date/timePositionNaut miles runAvg speedWind from/ knotsBaromVisibWave heightAir tempDewpointWater temp
2017-Mar-29 23:30N 53°34' E 004°47'1212.4
2017-Mar-29 22:31N 53°23' E 004°40'1312.8
2017-Mar-29 21:32N 53°11' E 004°31'1313.3
2017-Mar-29 20:33N 52°60' E 004°21'1313.4
2017-Mar-29 19:33N 52°48' E 004°10'1413.8
2017-Mar-29 18:33N 52°36' E 003°59'1414.2
2017-Mar-29 17:33N 52°23' E 003°52'1414.2
2017-Mar-29 16:33N 52°08' E 003°55'1110.8
2017-Mar-29 15:33N 51°59' E 004°04'10 9.7
2017-Mar-29 14:34N 51°54' E 004°17'1 0.5
2017-Mar-29 13:33N 51°53' E 004°18'0 0.0
2017-Mar-29 12:33N 51°53' E 004°18'0 0.0
2017-Mar-29 11:33N 51°53' E 004°18'2 1.9
2017-Mar-29 10:33N 51°54' E 004°21'3 2.5
2017-Mar-29 09:33N 51°53' E 004°25'0 0.0
2017-Mar-29 08:33N 51°53' E 004°25'0 0.0
2017-Mar-29 07:33N 51°53' E 004°25'0 0.0
2017-Mar-29 06:33N 51°53' E 004°25'0 0.0
2017-Mar-29 05:33N 51°53' E 004°25'0 0.0
2017-Mar-29 04:33N 51°53' E 004°25'0 0.0
2017-Mar-29 03:33N 51°53' E 004°25'0 0.0
2017-Mar-29 02:33N 51°53' E 004°25'0 0.0
2017-Mar-29 01:33N 51°53' E 004°25'0 0.0
2017-Mar-29 00:33N 51°53' E 004°25'0 0.0
2017-Mar-28 23:33N 51°53' E 004°25'0 0.0
2017-Mar-28 22:33N 51°53' E 004°25'0 0.0
2017-Mar-28 21:33N 51°53' E 004°25'0 0.0
2017-Mar-28 20:33N 51°53' E 004°25'0 0.0
2017-Mar-28 19:33N 51°53' E 004°25'0 0.0
2017-Mar-28 18:33N 51°53' E 004°25'0 0.0
2017-Mar-28 17:33N 51°53' E 004°25'0 0.0
2017-Mar-28 16:33N 51°53' E 004°25'0 0.0
2017-Mar-28 15:33N 51°53' E 004°25'0 0.0
2017-Mar-28 14:33N 51°53' E 004°25'0 0.0
2017-Mar-28 13:33N 51°53' E 004°25'0 0.0
2017-Mar-28 12:33N 51°53' E 004°25'0 0.0
2017-Mar-28 11:33N 51°53' E 004°25'0 0.0
2017-Mar-28 10:33N 51°53' E 004°25'0 0.0
2017-Mar-28 09:33N 51°53' E 004°25'0 0.0
2017-Mar-28 08:33N 51°53' E 004°25'0 0.0
2017-Mar-28 07:33N 51°53' E 004°25'0 0.0
2017-Mar-28 06:33N 51°53' E 004°25'0 0.0
2017-Mar-28 05:33N 51°53' E 004°25'0 0.0
2017-Mar-28 04:33N 51°53' E 004°25'0 0.0
2017-Mar-28 03:33N 51°53' E 004°25'0 0.0
2017-Mar-28 02:33N 51°53' E 004°25'0 0.0
2017-Mar-28 01:33N 51°53' E 004°25'0 0.0
2017-Mar-28 00:33N 51°53' E 004°25'0 0.0
2017-Mar-27 23:33N 51°53' E 004°25'0 0.0
2017-Mar-27 22:33N 51°53' E 004°25'0 0.0
2017-Mar-27 21:33N 51°53' E 004°25'0 0.0
2017-Mar-27 20:33N 51°53' E 004°25'0 0.0
2017-Mar-27 19:33N 51°53' E 004°25'0 0.0
2017-Mar-27 18:33N 51°53' E 004°25'0 0.0
2017-Mar-27 17:33N 51°53' E 004°25'0 0.0
2017-Mar-27 16:33N 51°53' E 004°25'0 0.0
2017-Mar-27 15:33N 51°53' E 004°25'0 0.0
2017-Mar-27 14:33N 51°53' E 004°25'0 0.0
2017-Mar-27 13:33N 51°53' E 004°25'0 0.0
2017-Mar-27 12:33N 51°53' E 004°25'0 0.0
2017-Mar-27 11:33N 51°53' E 004°25'0 0.0
2017-Mar-27 10:33N 51°53' E 004°25'0 0.0
2017-Mar-27 09:33N 51°53' E 004°25'0 0.0
2017-Mar-27 08:33N 51°53' E 004°25'0 0.0
2017-Mar-27 07:33N 51°53' E 004°25'0 0.0
2017-Mar-27 06:33N 51°53' E 004°25'0 0.0
2017-Mar-27 05:33N 51°53' E 004°25'0 0.0
2017-Mar-27 04:33N 51°53' E 004°25'0 0.0
2017-Mar-27 03:33N 51°53' E 004°25'0 0.0
2017-Mar-27 02:33N 51°53' E 004°25'4 3.9
2017-Mar-27 01:33N 51°54' E 004°18'1312.7
2017-Mar-27 00:34N 51°60' E 004°00'1111.0
2017-Mar-26 23:33N 52°02' E 003°43'1111.1
2017-Mar-26 22:32N 52°08' E 003°27'1111.0
2017-Mar-26 21:33N 52°14' E 003°13'2411.3
2017-Mar-26 19:25N 52°30' E 002°43'1011.1
2017-Mar-26 18:33N 52°36' E 002°30'1110.9
2017-Mar-26 17:33N 52°43' E 002°16'1110.9
2017-Mar-26 16:33N 52°51' E 002°04'1111.0
2017-Mar-26 15:34N 52°58' E 001°50'1111.1
2017-Mar-26 14:33N 53°04' E 001°35'1111.2
2017-Mar-26 13:34N 53°12' E 001°21'1110.9
2017-Mar-26 12:33N 53°20' E 001°10'1110.7
2017-Mar-26 11:33N 53°27' E 000°57'1111.0
2017-Mar-26 10:32N 53°34' E 000°42'1010.7
2017-Mar-26 09:34N 53°42' E 000°30'1110.7
2017-Mar-26 08:33N 53°51' E 000°20'1111.0
2017-Mar-26 07:34N 54°00' E 000°09'1010.5
2017-Mar-26 06:34N 54°09' W 000°00'1110.8
2017-Mar-26 05:33N 54°18' W 000°10'1110.9
2017-Mar-26 04:33N 54°28' W 000°19'1111.0
2017-Mar-26 03:33N 54°37' W 000°28'1110.9
2017-Mar-26 02:34N 54°47' W 000°37'1111.0
2017-Mar-26 01:34N 54°56' W 000°47'1111.4
2017-Mar-26 00:33N 55°06' W 000°57'1211.5
2017-Mar-25 23:33N 55°16' W 001°07'1111.5
2017-Mar-25 22:33N 55°26' W 001°17'1111.5
2017-Mar-25 21:34N 55°36' W 001°27'1111.0
2017-Mar-25 20:33N 55°47' W 001°30'1111.2
2017-Mar-25 19:33N 55°58' W 001°30'1111.0
2017-Mar-25 18:34N 56°09' W 001°30'1111.0
2017-Mar-25 17:31N 56°21' W 001°31'2211.0
2017-Mar-25 15:32N 56°43' W 001°32'1110.8
2017-Mar-25 14:34N 56°53' W 001°32'1110.9
2017-Mar-25 13:33N 57°04' W 001°33'1111.6
2017-Mar-25 12:33N 57°16' W 001°34'1413.7
2017-Mar-25 11:33N 57°29' W 001°34'1212.5
2017-Mar-25 10:33N 57°42' W 001°37'1312.8
2017-Mar-25 09:33N 57°54' W 001°45'  
Track history (hours):
 
Tides and Currents Weather Stations Pressure Air Temp Water Temp Dewpoint Dewpoint Depression Visibility Wind Speed Wind Dir Waves Ship Positions

Katharina

Last reported at 2017-Mar-29 23:30 UTC. Time now 2017-Mar-30 12:39 UTC.
Position N 53°34' E 004°47'.

Length 146 m; draft 5.9 m.

Type: Ship (hazmat cat A). MMSI: 305305000.

Date/timePositionNaut miles runAvg speedWind from/ knotsBaromVisibWave heightAir tempDewpointWater temp
2017-Mar-29 23:30N 53°34' E 004°47'1212.4
2017-Mar-29 22:31N 53°23' E 004°40'1312.8
2017-Mar-29 21:32N 53°11' E 004°31'1313.3
2017-Mar-29 20:33N 52°60' E 004°21'1313.4
2017-Mar-29 19:33N 52°48' E 004°10'1413.8
2017-Mar-29 18:33N 52°36' E 003°59'1414.2
2017-Mar-29 17:33N 52°23' E 003°52'1414.2
2017-Mar-29 16:33N 52°08' E 003°55'1110.8
2017-Mar-29 15:33N 51°59' E 004°04'10 9.7
2017-Mar-29 14:34N 51°54' E 004°17'1 0.5
2017-Mar-29 13:33N 51°53' E 004°18'0 0.0
2017-Mar-29 12:33N 51°53' E 004°18'0 0.0
2017-Mar-29 11:33N 51°53' E 004°18'2 1.9
2017-Mar-29 10:33N 51°54' E 004°21'3 2.5
2017-Mar-29 09:33N 51°53' E 004°25'0 0.0
2017-Mar-29 08:33N 51°53' E 004°25'0 0.0
2017-Mar-29 07:33N 51°53' E 004°25'0 0.0
2017-Mar-29 06:33N 51°53' E 004°25'0 0.0
2017-Mar-29 05:33N 51°53' E 004°25'0 0.0
2017-Mar-29 04:33N 51°53' E 004°25'0 0.0
2017-Mar-29 03:33N 51°53' E 004°25'0 0.0
2017-Mar-29 02:33N 51°53' E 004°25'0 0.0
2017-Mar-29 01:33N 51°53' E 004°25'0 0.0
2017-Mar-29 00:33N 51°53' E 004°25'0 0.0
2017-Mar-28 23:33N 51°53' E 004°25'0 0.0
2017-Mar-28 22:33N 51°53' E 004°25'0 0.0
2017-Mar-28 21:33N 51°53' E 004°25'0 0.0
2017-Mar-28 20:33N 51°53' E 004°25'0 0.0
2017-Mar-28 19:33N 51°53' E 004°25'0 0.0
2017-Mar-28 18:33N 51°53' E 004°25'0 0.0
2017-Mar-28 17:33N 51°53' E 004°25'0 0.0
2017-Mar-28 16:33N 51°53' E 004°25'0 0.0
2017-Mar-28 15:33N 51°53' E 004°25'0 0.0
2017-Mar-28 14:33N 51°53' E 004°25'0 0.0
2017-Mar-28 13:33N 51°53' E 004°25'0 0.0
2017-Mar-28 12:33N 51°53' E 004°25'0 0.0
2017-Mar-28 11:33N 51°53' E 004°25'0 0.0
2017-Mar-28 10:33N 51°53' E 004°25'0 0.0
2017-Mar-28 09:33N 51°53' E 004°25'0 0.0
2017-Mar-28 08:33N 51°53' E 004°25'0 0.0
2017-Mar-28 07:33N 51°53' E 004°25'0 0.0
2017-Mar-28 06:33N 51°53' E 004°25'0 0.0
2017-Mar-28 05:33N 51°53' E 004°25'0 0.0
2017-Mar-28 04:33N 51°53' E 004°25'0 0.0
2017-Mar-28 03:33N 51°53' E 004°25'0 0.0
2017-Mar-28 02:33N 51°53' E 004°25'0 0.0
2017-Mar-28 01:33N 51°53' E 004°25'0 0.0
2017-Mar-28 00:33N 51°53' E 004°25'0 0.0
2017-Mar-27 23:33N 51°53' E 004°25'0 0.0
2017-Mar-27 22:33N 51°53' E 004°25'0 0.0
2017-Mar-27 21:33N 51°53' E 004°25'0 0.0
2017-Mar-27 20:33N 51°53' E 004°25'0 0.0
2017-Mar-27 19:33N 51°53' E 004°25'0 0.0
2017-Mar-27 18:33N 51°53' E 004°25'0 0.0
2017-Mar-27 17:33N 51°53' E 004°25'0 0.0
2017-Mar-27 16:33N 51°53' E 004°25'0 0.0
2017-Mar-27 15:33N 51°53' E 004°25'0 0.0
2017-Mar-27 14:33N 51°53' E 004°25'0 0.0
2017-Mar-27 13:33N 51°53' E 004°25'0 0.0
2017-Mar-27 12:33N 51°53' E 004°25'0 0.0
2017-Mar-27 11:33N 51°53' E 004°25'0 0.0
2017-Mar-27 10:33N 51°53' E 004°25'0 0.0
2017-Mar-27 09:33N 51°53' E 004°25'0 0.0
2017-Mar-27 08:33N 51°53' E 004°25'0 0.0
2017-Mar-27 07:33N 51°53' E 004°25'0 0.0
2017-Mar-27 06:33N 51°53' E 004°25'0 0.0
2017-Mar-27 05:33N 51°53' E 004°25'0 0.0
2017-Mar-27 04:33N 51°53' E 004°25'0 0.0
2017-Mar-27 03:33N 51°53' E 004°25'0 0.0
2017-Mar-27 02:33N 51°53' E 004°25'4 3.9
2017-Mar-27 01:33N 51°54' E 004°18'1312.7
2017-Mar-27 00:34N 51°60' E 004°00'1111.0
2017-Mar-26 23:33N 52°02' E 003°43'1111.1
2017-Mar-26 22:32N 52°08' E 003°27'1111.0
2017-Mar-26 21:33N 52°14' E 003°13'2411.3
2017-Mar-26 19:25N 52°30' E 002°43'1011.1
2017-Mar-26 18:33N 52°36' E 002°30'1110.9
2017-Mar-26 17:33N 52°43' E 002°16'1110.9
2017-Mar-26 16:33N 52°51' E 002°04'1111.0
2017-Mar-26 15:34N 52°58' E 001°50'1111.1
2017-Mar-26 14:33N 53°04' E 001°35'1111.2
2017-Mar-26 13:34N 53°12' E 001°21'1110.9
2017-Mar-26 12:33N 53°20' E 001°10'1110.7
2017-Mar-26 11:33N 53°27' E 000°57'1111.0
2017-Mar-26 10:32N 53°34' E 000°42'1010.7
2017-Mar-26 09:34N 53°42' E 000°30'1110.7
2017-Mar-26 08:33N 53°51' E 000°20'1111.0
2017-Mar-26 07:34N 54°00' E 000°09'1010.5
2017-Mar-26 06:34N 54°09' W 000°00'1110.8
2017-Mar-26 05:33N 54°18' W 000°10'1110.9
2017-Mar-26 04:33N 54°28' W 000°19'1111.0
2017-Mar-26 03:33N 54°37' W 000°28'1110.9
2017-Mar-26 02:34N 54°47' W 000°37'1111.0
2017-Mar-26 01:34N 54°56' W 000°47'1111.4
2017-Mar-26 00:33N 55°06' W 000°57'1211.5
2017-Mar-25 23:33N 55°16' W 001°07'1111.5
2017-Mar-25 22:33N 55°26' W 001°17'1111.5
2017-Mar-25 21:34N 55°36' W 001°27'1111.0
2017-Mar-25 20:33N 55°47' W 001°30'1111.2
2017-Mar-25 19:33N 55°58' W 001°30'1111.0
2017-Mar-25 18:34N 56°09' W 001°30'1111.0
2017-Mar-25 17:31N 56°21' W 001°31'2211.0
2017-Mar-25 15:32N 56°43' W 001°32'1110.8
2017-Mar-25 14:34N 56°53' W 001°32'1110.9
2017-Mar-25 13:33N 57°04' W 001°33'1111.6
2017-Mar-25 12:33N 57°16' W 001°34'1413.7
2017-Mar-25 11:33N 57°29' W 001°34'1212.5
2017-Mar-25 10:33N 57°42' W 001°37'1312.8
2017-Mar-25 09:33N 57°54' W 001°45'  

Dump ship's entire track history